createdAt,value
2023-06-17T00:00:43.487Z,25.54
2023-06-17T00:01:43.425Z,25.54
2023-06-17T00:02:43.541Z,25.54
2023-06-17T00:03:43.447Z,25.54
2023-06-17T00:04:43.395Z,25.54
2023-06-17T00:05:43.418Z,25.54
2023-06-17T00:06:43.434Z,25.54
2023-06-17T00:07:43.392Z,25.53
2023-06-17T00:08:43.355Z,25.53
2023-06-17T00:09:43.355Z,25.54
2023-06-17T00:10:43.340Z,25.53
2023-06-17T00:11:43.359Z,25.53
2023-06-17T00:12:43.349Z,25.53
2023-06-17T00:13:43.322Z,25.53
2023-06-17T00:14:43.349Z,25.53
2023-06-17T00:15:43.302Z,25.52
2023-06-17T00:16:43.346Z,25.53
2023-06-17T00:17:43.358Z,25.52
2023-06-17T00:18:43.280Z,25.53
2023-06-17T00:19:43.298Z,25.52
2023-06-17T00:20:43.305Z,25.52
2023-06-17T00:21:43.264Z,25.51
2023-06-17T00:22:43.329Z,25.51
2023-06-17T00:23:43.249Z,25.52
2023-06-17T00:24:43.273Z,25.51
2023-06-17T00:25:43.287Z,25.51
2023-06-17T00:26:43.268Z,25.51
2023-06-17T00:27:43.241Z,25.50
2023-06-17T00:28:43.285Z,25.50
2023-06-17T00:29:43.263Z,25.50
2023-06-17T00:30:43.290Z,25.50
2023-06-17T00:31:43.288Z,25.49
2023-06-17T00:32:43.391Z,25.49
2023-06-17T00:33:43.432Z,25.49
2023-06-17T00:34:43.403Z,25.49
2023-06-17T00:35:43.494Z,25.49
2023-06-17T00:36:43.485Z,25.49
2023-06-17T00:37:43.498Z,25.49
2023-06-17T00:38:43.538Z,25.49
2023-06-17T00:39:43.584Z,25.49
2023-06-17T00:40:43.654Z,25.49
2023-06-17T00:41:43.640Z,25.49
2023-06-17T00:42:43.649Z,25.49
2023-06-17T00:43:43.694Z,25.49
2023-06-17T00:44:43.747Z,25.49
2023-06-17T00:45:43.788Z,25.49
2023-06-17T00:46:43.841Z,25.48
2023-06-17T00:47:43.893Z,25.48
2023-06-17T00:48:43.858Z,25.48
2023-06-17T00:49:43.925Z,25.47
2023-06-17T00:50:43.946Z,25.48
2023-06-17T00:51:43.984Z,25.48
2023-06-17T00:52:44.064Z,25.48
2023-06-17T00:53:44.052Z,25.47
2023-06-17T00:54:44.106Z,25.47
2023-06-17T00:55:44.156Z,25.48
2023-06-17T00:56:44.180Z,25.47
2023-06-17T00:57:44.228Z,25.47
2023-06-17T00:58:44.260Z,25.47
2023-06-17T00:59:44.327Z,25.47
2023-06-17T01:00:44.359Z,25.47
2023-06-17T01:01:44.429Z,25.46
2023-06-17T01:02:44.603Z,25.46
2023-06-17T01:03:44.630Z,25.46
2023-06-17T01:04:44.602Z,25.46
2023-06-17T01:05:44.597Z,25.46
2023-06-17T01:06:44.644Z,25.46
2023-06-17T01:07:44.678Z,25.46
2023-06-17T01:08:44.786Z,25.46
2023-06-17T01:09:44.758Z,25.45
2023-06-17T01:10:44.977Z,25.45
2023-06-17T01:11:44.890Z,25.46
2023-06-17T01:12:44.926Z,25.46
2023-06-17T01:13:44.957Z,25.45
2023-06-17T01:14:45.013Z,25.45
2023-06-17T01:15:45.095Z,25.45
2023-06-17T01:16:45.122Z,25.45
2023-06-17T01:17:45.231Z,25.45
2023-06-17T01:18:45.165Z,25.45
2023-06-17T01:19:45.199Z,25.45
2023-06-17T01:20:45.267Z,25.44
2023-06-17T01:21:45.291Z,25.44
2023-06-17T01:22:45.363Z,25.45
2023-06-17T01:23:45.404Z,25.43
2023-06-17T01:24:45.438Z,25.45
2023-06-17T01:25:45.508Z,25.44
2023-06-17T01:26:45.536Z,25.43
2023-06-17T01:27:45.597Z,25.43
2023-06-17T01:28:45.663Z,25.43
2023-06-17T01:29:45.669Z,25.43
2023-06-17T01:30:45.805Z,25.43
2023-06-17T01:31:45.780Z,25.43
2023-06-17T01:32:45.829Z,25.42
2023-06-17T01:33:45.857Z,25.42
2023-06-17T01:34:45.911Z,25.42
2023-06-17T01:35:45.905Z,25.43
2023-06-17T01:36:45.973Z,25.42
2023-06-17T01:37:46.029Z,25.42
2023-06-17T01:38:46.026Z,25.42
2023-06-17T01:39:46.124Z,25.42
2023-06-17T01:40:46.159Z,25.42
2023-06-17T01:41:46.203Z,25.43
2023-06-17T01:42:46.215Z,25.42
2023-06-17T01:43:46.380Z,25.42
2023-06-17T01:44:46.331Z,25.41
2023-06-17T01:45:46.404Z,25.42
2023-06-17T01:46:46.406Z,25.42
2023-06-17T01:47:46.488Z,25.42
2023-06-17T01:48:46.503Z,25.41
2023-06-17T01:49:46.558Z,25.42
2023-06-17T01:50:46.601Z,25.41
2023-06-17T01:51:46.607Z,25.41
2023-06-17T01:52:46.697Z,25.41
2023-06-17T01:53:46.699Z,25.40
2023-06-17T01:54:46.776Z,25.40
2023-06-17T01:55:46.805Z,25.41
2023-06-17T01:56:46.863Z,25.40
2023-06-17T01:57:46.888Z,25.40
2023-06-17T01:58:46.901Z,25.40
2023-06-17T01:59:46.957Z,25.40
2023-06-17T02:00:47.021Z,25.40
2023-06-17T02:01:47.040Z,25.40
2023-06-17T02:02:47.131Z,25.40
2023-06-17T02:03:47.140Z,25.39
2023-06-17T02:04:47.181Z,25.40
2023-06-17T02:05:47.496Z,25.40
2023-06-17T02:06:47.295Z,25.39
2023-06-17T02:07:47.319Z,25.39
2023-06-17T02:08:47.357Z,25.39
2023-06-17T02:09:47.400Z,25.39
2023-06-17T02:10:47.482Z,25.38
2023-06-17T02:11:47.488Z,25.39
2023-06-17T02:12:47.551Z,25.38
2023-06-17T02:13:47.592Z,25.38
2023-06-17T02:14:47.669Z,25.38
2023-06-17T02:15:47.789Z,25.38
2023-06-17T02:16:47.750Z,25.37
2023-06-17T02:17:47.833Z,25.37
2023-06-17T02:18:47.834Z,25.37
2023-06-17T02:19:47.908Z,25.37
2023-06-17T02:20:47.934Z,25.37
2023-06-17T02:21:48.017Z,25.37
2023-06-17T02:22:48.040Z,25.37
2023-06-17T02:23:48.144Z,25.37
2023-06-17T02:24:48.136Z,25.36
2023-06-17T02:25:48.177Z,25.36
2023-06-17T02:26:48.259Z,25.36
2023-06-17T02:27:48.370Z,25.36
2023-06-17T02:28:48.340Z,25.36
2023-06-17T02:29:48.373Z,25.36
2023-06-17T02:30:48.421Z,25.35
2023-06-17T02:31:48.524Z,25.35
2023-06-17T02:32:48.672Z,25.36
2023-06-17T02:33:48.625Z,25.36
2023-06-17T02:34:48.627Z,25.36
2023-06-17T02:35:48.702Z,25.35
2023-06-17T02:36:48.802Z,25.35
2023-06-17T02:37:48.816Z,25.35
2023-06-17T02:38:48.838Z,25.35
2023-06-17T02:39:48.895Z,25.35
2023-06-17T02:40:48.980Z,25.34
2023-06-17T02:41:48.979Z,25.34
2023-06-17T02:42:49.015Z,25.35
2023-06-17T02:43:49.061Z,25.34
2023-06-17T02:44:49.148Z,25.35
2023-06-17T02:45:49.182Z,25.34
2023-06-17T02:46:49.261Z,25.34
2023-06-17T02:47:49.317Z,25.34
2023-06-17T02:48:49.361Z,25.35
2023-06-17T02:49:49.372Z,25.34
2023-06-17T02:50:49.418Z,25.34
2023-06-17T02:51:49.500Z,25.34
2023-06-17T02:52:49.603Z,25.34
2023-06-17T02:53:49.547Z,25.34
2023-06-17T02:54:49.599Z,25.34
2023-06-17T02:55:49.653Z,25.34
2023-06-17T02:56:49.731Z,25.34
2023-06-17T02:57:49.798Z,25.33
2023-06-17T02:58:49.840Z,25.33
2023-06-17T02:59:49.859Z,25.33
2023-06-17T03:00:49.948Z,25.33
2023-06-17T03:01:50.046Z,25.33
2023-06-17T03:02:50.399Z,25.33
2023-06-17T03:03:50.092Z,25.33
2023-06-17T03:04:50.127Z,25.33
2023-06-17T03:05:50.253Z,25.33
2023-06-17T03:06:50.216Z,25.33
2023-06-17T03:07:50.420Z,25.33
2023-06-17T03:08:50.334Z,25.32
2023-06-17T03:09:50.355Z,25.32
2023-06-17T03:10:50.487Z,25.32
2023-06-17T03:11:50.542Z,25.32
2023-06-17T03:12:50.565Z,25.32
2023-06-17T03:13:50.594Z,25.32
2023-06-17T03:14:50.614Z,25.32
2023-06-17T03:15:50.677Z,25.32
2023-06-17T03:16:50.793Z,25.33
2023-06-17T03:17:50.877Z,25.32
2023-06-17T03:18:50.827Z,25.32
2023-06-17T03:19:50.892Z,25.32
2023-06-17T03:20:50.923Z,25.32
2023-06-17T03:21:51.001Z,25.32
2023-06-17T03:22:51.064Z,25.32
2023-06-17T03:23:51.117Z,25.32
2023-06-17T03:24:51.173Z,25.32
2023-06-17T03:25:51.297Z,25.32
2023-06-17T03:26:51.332Z,25.32
2023-06-17T03:27:51.331Z,25.32
2023-06-17T03:28:51.353Z,25.32
2023-06-17T03:29:51.421Z,25.32
2023-06-17T03:30:51.506Z,25.32
2023-06-17T03:31:51.541Z,25.32
2023-06-17T03:32:51.667Z,25.33
2023-06-17T03:33:51.662Z,25.32
2023-06-17T03:34:51.680Z,25.32
2023-06-17T03:35:51.772Z,25.32
2023-06-17T03:36:51.802Z,25.32
2023-06-17T03:37:51.896Z,25.32
2023-06-17T03:38:51.894Z,25.32
2023-06-17T03:39:51.959Z,25.31
2023-06-17T03:40:52.004Z,25.32
2023-06-17T03:41:52.079Z,25.32
2023-06-17T03:42:52.111Z,25.32
2023-06-17T03:43:52.169Z,25.33
2023-06-17T03:44:52.195Z,25.32
2023-06-17T03:45:52.219Z,25.32
2023-06-17T03:46:52.294Z,25.33
2023-06-17T03:47:52.460Z,25.32
2023-06-17T03:48:52.390Z,25.32
2023-06-17T03:49:52.457Z,25.32
2023-06-17T03:50:52.505Z,25.33
2023-06-17T03:51:52.563Z,25.33
2023-06-17T03:52:52.638Z,25.33
2023-06-17T03:53:52.677Z,25.33
2023-06-17T03:54:52.767Z,25.33
2023-06-17T03:55:52.748Z,25.34
2023-06-17T03:56:52.869Z,25.36
2023-06-17T03:57:52.823Z,25.37
2023-06-17T03:58:52.848Z,25.37
2023-06-17T03:59:52.929Z,25.36
2023-06-17T04:00:52.972Z,25.36
2023-06-17T04:01:53.010Z,25.37
2023-06-17T04:02:53.125Z,25.36
2023-06-17T04:03:53.260Z,25.36
2023-06-17T04:04:53.175Z,25.36
2023-06-17T04:05:53.237Z,25.36
2023-06-17T04:06:53.235Z,25.36
2023-06-17T04:07:53.354Z,25.37
2023-06-17T04:08:53.367Z,25.38
2023-06-17T04:10:05.882Z,25.41
2023-06-17T04:10:54.395Z,25.42
2023-06-17T04:11:53.414Z,25.42
2023-06-17T04:12:53.373Z,25.51
2023-06-17T04:13:53.385Z,25.47
2023-06-17T04:14:53.434Z,25.46
2023-06-17T04:15:53.402Z,25.66
2023-06-17T04:16:53.393Z,25.88
2023-06-17T04:17:54.815Z,25.89
2023-06-17T04:18:53.422Z,25.85
2023-06-17T04:19:53.346Z,25.79
2023-06-17T04:20:53.369Z,25.74
2023-06-17T04:21:53.335Z,25.68
2023-06-17T04:22:53.326Z,25.65
2023-06-17T04:23:53.331Z,25.63
2023-06-17T04:24:53.319Z,25.63
2023-06-17T04:25:53.289Z,25.62
2023-06-17T04:26:53.280Z,25.61
2023-06-17T04:27:53.324Z,25.60
2023-06-17T04:28:53.366Z,25.60
2023-06-17T04:29:53.244Z,25.60
2023-06-17T04:30:53.277Z,25.60
2023-06-17T04:31:53.281Z,25.60
2023-06-17T04:32:53.278Z,25.63
2023-06-17T04:33:53.276Z,25.86
2023-06-17T04:34:53.249Z,26.35
2023-06-17T04:35:53.236Z,26.90
2023-06-17T04:36:53.226Z,27.38
2023-06-17T04:37:53.244Z,27.77
2023-06-17T04:38:53.237Z,28.05
2023-06-17T04:39:53.205Z,28.32
2023-06-17T04:40:53.190Z,28.51
2023-06-17T04:41:53.217Z,28.66
2023-06-17T04:42:53.224Z,28.81
2023-06-17T04:43:53.219Z,28.96
2023-06-17T04:44:53.188Z,29.10
2023-06-17T04:45:53.193Z,29.24
2023-06-17T04:46:53.243Z,29.37
2023-06-17T04:47:53.216Z,29.47
2023-06-17T04:48:53.150Z,29.55
2023-06-17T04:49:53.155Z,29.62
2023-06-17T04:50:53.117Z,29.72
2023-06-17T04:51:53.129Z,29.80
2023-06-17T04:52:53.283Z,29.92
2023-06-17T04:53:53.156Z,30.11
2023-06-17T04:54:53.098Z,30.24
2023-06-17T04:55:53.108Z,30.20
2023-06-17T04:56:53.099Z,30.24
2023-06-17T04:57:53.068Z,30.33
2023-06-17T04:58:53.071Z,30.39
2023-06-17T04:59:53.085Z,30.36
2023-06-17T05:00:53.113Z,30.00
2023-06-17T05:01:53.085Z,29.39
2023-06-17T05:02:53.074Z,28.89
2023-06-17T05:03:53.113Z,28.51
2023-06-17T05:04:53.025Z,28.22
2023-06-17T05:05:53.012Z,27.99
2023-06-17T05:06:52.988Z,27.84
2023-06-17T05:07:52.994Z,27.73
2023-06-17T05:08:53.015Z,27.62
2023-06-17T05:09:52.982Z,27.51
2023-06-17T05:10:52.994Z,27.43
2023-06-17T05:11:52.980Z,27.39
2023-06-17T05:12:52.971Z,27.35
2023-06-17T05:13:52.981Z,27.29
2023-06-17T05:14:52.924Z,27.25
2023-06-17T05:15:52.942Z,27.23
2023-06-17T05:16:52.971Z,27.19
2023-06-17T05:17:52.970Z,27.19
2023-06-17T05:18:52.936Z,27.16
2023-06-17T05:19:52.920Z,27.14
2023-06-17T05:20:52.921Z,27.14
2023-06-17T05:21:52.936Z,27.14
2023-06-17T05:22:52.934Z,27.13
2023-06-17T05:23:52.934Z,27.12
2023-06-17T05:24:53.510Z,27.12
2023-06-17T05:25:52.956Z,27.11
2023-06-17T05:26:53.058Z,27.08
2023-06-17T05:27:53.097Z,27.07
2023-06-17T05:28:53.077Z,27.05
2023-06-17T05:29:53.078Z,27.03
2023-06-17T05:30:53.114Z,27.03
2023-06-17T05:31:53.090Z,27.02
2023-06-17T05:32:53.140Z,27.02
2023-06-17T05:33:53.128Z,27.01
2023-06-17T05:34:53.066Z,27.02
2023-06-17T05:35:53.112Z,27.03
2023-06-17T05:36:53.132Z,27.04
2023-06-17T05:37:53.131Z,27.05
2023-06-17T05:38:53.106Z,27.06
2023-06-17T05:39:53.153Z,27.08
2023-06-17T05:40:53.154Z,27.08
2023-06-17T05:41:53.114Z,27.09
2023-06-17T05:42:53.096Z,27.11
2023-06-17T05:43:53.101Z,27.10
2023-06-17T05:44:53.154Z,27.10
2023-06-17T05:45:53.138Z,27.12
2023-06-17T05:46:53.136Z,27.13
2023-06-17T05:47:53.186Z,27.14
2023-06-17T05:48:53.146Z,27.15
2023-06-17T05:49:53.136Z,27.15
2023-06-17T05:50:53.127Z,27.15
2023-06-17T05:51:53.141Z,27.15
2023-06-17T05:52:53.145Z,27.14
2023-06-17T05:53:53.148Z,27.14
2023-06-17T05:54:53.148Z,27.13
2023-06-17T05:55:53.159Z,27.14
2023-06-17T05:56:53.165Z,27.14
2023-06-17T05:57:53.134Z,27.13
2023-06-17T05:58:53.157Z,27.13
2023-06-17T05:59:53.157Z,27.10
2023-06-17T06:00:53.182Z,27.07
2023-06-17T06:01:53.254Z,27.05
2023-06-17T06:02:53.273Z,27.03
2023-06-17T06:03:53.243Z,27.02
2023-06-17T06:04:53.177Z,27.02
2023-06-17T06:05:53.224Z,27.04
2023-06-17T06:06:53.231Z,27.04
2023-06-17T06:07:53.259Z,27.06
2023-06-17T06:08:53.245Z,27.06
2023-06-17T06:09:53.256Z,27.05
2023-06-17T06:10:53.290Z,27.04
2023-06-17T06:11:53.315Z,27.03
2023-06-17T06:12:53.277Z,27.02
2023-06-17T06:13:53.290Z,27.03
2023-06-17T06:14:53.301Z,27.02
2023-06-17T06:15:53.364Z,27.02
2023-06-17T06:16:53.328Z,27.04
2023-06-17T06:17:53.366Z,27.04
2023-06-17T06:18:53.366Z,27.04
2023-06-17T06:19:53.379Z,27.06
2023-06-17T06:20:53.350Z,27.07
2023-06-17T06:21:53.355Z,27.06
2023-06-17T06:22:53.381Z,27.04
2023-06-17T06:23:54.944Z,27.04
2023-06-17T06:24:53.414Z,27.05
2023-06-17T06:25:53.411Z,27.06
2023-06-17T06:26:53.378Z,27.05
2023-06-17T06:27:53.342Z,27.05
2023-06-17T06:28:53.440Z,27.05
2023-06-17T06:29:53.325Z,27.07
2023-06-17T06:30:53.348Z,27.07
2023-06-17T06:31:53.331Z,27.08
2023-06-17T06:32:53.380Z,27.08
2023-06-17T06:33:53.310Z,27.08
2023-06-17T06:34:53.403Z,27.09
2023-06-17T06:35:53.287Z,27.08
2023-06-17T06:36:53.332Z,27.09
2023-06-17T06:37:53.283Z,27.09
2023-06-17T06:38:53.295Z,27.08
2023-06-17T06:39:53.248Z,27.08
2023-06-17T06:40:53.275Z,27.07
2023-06-17T06:41:53.292Z,27.07
2023-06-17T06:42:53.252Z,27.05
2023-06-17T06:43:53.267Z,27.03
2023-06-17T06:44:53.237Z,27.03
2023-06-17T06:45:53.291Z,27.03
2023-06-17T06:46:53.198Z,27.03
2023-06-17T06:47:53.247Z,27.03
2023-06-17T06:48:53.220Z,27.03
2023-06-17T06:49:53.221Z,27.03
2023-06-17T06:50:53.269Z,27.04
2023-06-17T06:51:53.182Z,27.04
2023-06-17T06:52:53.204Z,27.03
2023-06-17T06:53:53.188Z,27.02
2023-06-17T06:54:53.205Z,27.02
2023-06-17T06:55:53.158Z,27.01
2023-06-17T06:56:53.175Z,27.01
2023-06-17T06:57:53.141Z,27.02
2023-06-17T06:58:53.118Z,27.02
2023-06-17T06:59:53.129Z,27.02
2023-06-17T07:00:53.149Z,27.03
2023-06-17T07:01:53.109Z,26.99
2023-06-17T07:02:53.121Z,26.99
2023-06-17T07:03:53.121Z,27.00
2023-06-17T07:04:53.162Z,26.99
2023-06-17T07:05:53.126Z,26.98
2023-06-17T07:06:53.077Z,26.99
2023-06-17T07:07:53.085Z,26.99
2023-06-17T07:08:53.066Z,27.00
2023-06-17T07:09:53.075Z,27.03
2023-06-17T07:10:53.017Z,27.01
2023-06-17T07:11:53.015Z,27.01
2023-06-17T07:12:53.028Z,27.02
2023-06-17T07:13:53.015Z,27.01
2023-06-17T07:14:53.017Z,27.00
2023-06-17T07:15:53.045Z,26.98
2023-06-17T07:16:53.082Z,26.96
2023-06-17T07:17:53.047Z,26.95
2023-06-17T07:18:52.969Z,26.97
2023-06-17T07:19:52.994Z,26.96
2023-06-17T07:20:52.954Z,26.97
2023-06-17T07:21:52.952Z,26.98
2023-06-17T07:22:52.954Z,26.99
2023-06-17T07:23:53.013Z,27.00
2023-06-17T07:24:52.915Z,27.02
2023-06-17T07:25:55.902Z,27.02
2023-06-17T07:26:52.921Z,27.01
2023-06-17T07:27:52.893Z,27.02
2023-06-17T07:28:52.940Z,27.01
2023-06-17T07:29:52.870Z,27.01
2023-06-17T07:30:52.939Z,27.02
2023-06-17T07:31:52.964Z,27.02
2023-06-17T07:32:52.875Z,27.02
2023-06-17T07:33:59.317Z,27.02
2023-06-17T07:35:52.836Z,27.03
2023-06-17T07:36:52.866Z,27.02
2023-06-17T07:37:52.867Z,27.03
2023-06-17T07:38:52.852Z,27.01
2023-06-17T07:39:52.814Z,27.01
2023-06-17T07:40:52.851Z,27.01
2023-06-17T07:41:52.821Z,26.99
2023-06-17T07:42:52.801Z,27.00
2023-06-17T07:43:52.793Z,27.02
2023-06-17T07:44:52.766Z,27.03
2023-06-17T07:45:52.860Z,27.03
2023-06-17T07:46:52.847Z,27.04
2023-06-17T07:47:52.832Z,27.04
2023-06-17T07:48:52.788Z,27.03
2023-06-17T07:49:52.755Z,27.02
2023-06-17T07:50:52.783Z,27.02
2023-06-17T07:51:52.759Z,27.03
2023-06-17T07:52:52.728Z,27.03
2023-06-17T07:53:52.748Z,27.04
2023-06-17T07:54:52.725Z,27.04
2023-06-17T07:55:52.682Z,27.03
2023-06-17T07:56:52.748Z,27.04
2023-06-17T07:57:52.696Z,27.04
2023-06-17T07:58:52.723Z,27.04
2023-06-17T07:59:52.696Z,27.05
2023-06-17T08:00:52.711Z,27.04
2023-06-17T08:01:52.767Z,27.02
2023-06-17T08:02:52.813Z,27.01
2023-06-17T08:03:52.826Z,27.00
2023-06-17T08:04:52.808Z,26.99
2023-06-17T08:05:52.801Z,26.98
2023-06-17T08:06:52.838Z,26.99
2023-06-17T08:07:52.796Z,26.99
2023-06-17T08:08:52.821Z,27.00
2023-06-17T08:09:52.831Z,26.99
2023-06-17T08:10:52.808Z,26.98
2023-06-17T08:11:52.822Z,26.98
2023-06-17T08:12:52.890Z,26.99
2023-06-17T08:13:52.880Z,26.99
2023-06-17T08:14:52.872Z,27.01
2023-06-17T08:15:52.981Z,27.01
2023-06-17T08:16:52.914Z,27.02
2023-06-17T08:17:52.959Z,27.03
2023-06-17T08:18:52.943Z,27.01
2023-06-17T08:19:52.965Z,27.01
2023-06-17T08:20:52.966Z,27.02
2023-06-17T08:21:52.981Z,27.03
2023-06-17T08:22:52.966Z,27.02
2023-06-17T08:23:53.016Z,27.04
2023-06-17T08:24:52.970Z,27.03
2023-06-17T08:25:52.990Z,27.03
2023-06-17T08:26:52.992Z,27.02
2023-06-17T08:27:52.978Z,27.03
2023-06-17T08:28:52.989Z,27.04
2023-06-17T08:29:53.030Z,27.04
2023-06-17T08:30:53.056Z,27.05
2023-06-17T08:31:53.028Z,27.04
2023-06-17T08:32:53.153Z,27.04
2023-06-17T08:33:53.075Z,27.03
2023-06-17T08:34:53.193Z,27.04
2023-06-17T08:35:53.160Z,27.04
2023-06-17T08:36:53.080Z,27.03
2023-06-17T08:37:53.079Z,27.02
2023-06-17T08:38:53.178Z,27.03
2023-06-17T08:39:53.115Z,27.03
2023-06-17T08:40:53.142Z,27.02
2023-06-17T08:41:53.138Z,27.01
2023-06-17T08:42:53.110Z,26.99
2023-06-17T08:43:53.183Z,26.99
2023-06-17T08:44:53.144Z,26.97
2023-06-17T08:45:53.170Z,26.96
2023-06-17T08:46:53.278Z,26.97
2023-06-17T08:47:53.234Z,26.98
2023-06-17T08:48:53.207Z,26.99
2023-06-17T08:49:53.180Z,26.99
2023-06-17T08:50:53.215Z,26.99
2023-06-17T08:51:53.236Z,27.00
2023-06-17T08:52:55.287Z,27.00
2023-06-17T08:53:53.272Z,26.99
2023-06-17T08:54:53.274Z,26.99
2023-06-17T08:55:53.306Z,26.99
2023-06-17T08:56:53.277Z,26.99
2023-06-17T08:57:53.306Z,26.99
2023-06-17T08:58:53.326Z,26.97
2023-06-17T08:59:53.329Z,26.98
2023-06-17T09:00:53.354Z,26.99
2023-06-17T09:01:53.346Z,27.00
2023-06-17T09:02:53.356Z,27.01
2023-06-17T09:03:53.359Z,27.02
2023-06-17T09:04:53.392Z,27.01
2023-06-17T09:05:53.377Z,27.00
2023-06-17T09:06:53.409Z,27.02
2023-06-17T09:07:53.392Z,27.01
2023-06-17T09:08:53.406Z,27.02
2023-06-17T09:09:53.443Z,27.03
2023-06-17T09:10:53.400Z,27.02
2023-06-17T09:11:53.546Z,27.02
2023-06-17T09:12:53.448Z,27.03
2023-06-17T09:13:53.489Z,27.04
2023-06-17T09:14:53.454Z,27.03
2023-06-17T09:15:53.424Z,27.04
2023-06-17T09:16:53.538Z,27.04
2023-06-17T09:17:53.491Z,27.04
2023-06-17T09:18:53.469Z,27.05
2023-06-17T09:19:53.481Z,27.07
2023-06-17T09:20:53.539Z,27.08
2023-06-17T09:21:53.472Z,27.07
2023-06-17T09:22:53.497Z,27.07
2023-06-17T09:23:53.556Z,27.08
2023-06-17T09:24:53.493Z,27.09
2023-06-17T09:25:53.518Z,27.09
2023-06-17T09:26:53.621Z,27.07
2023-06-17T09:28:11.796Z,27.05
2023-06-17T09:28:54.521Z,27.05
2023-06-17T09:29:53.501Z,27.06
2023-06-17T09:30:53.482Z,27.06
2023-06-17T09:31:53.502Z,27.07
2023-06-17T09:32:53.734Z,27.06
2023-06-17T09:33:53.457Z,27.05
2023-06-17T09:34:53.458Z,27.07
2023-06-17T09:35:53.484Z,27.09
2023-06-17T09:36:53.458Z,27.08
2023-06-17T09:38:03.247Z,27.08
2023-06-17T09:38:54.479Z,27.08
2023-06-17T09:39:53.424Z,27.08
2023-06-17T09:40:55.298Z,27.08
2023-06-17T09:41:53.392Z,27.08
2023-06-17T09:42:53.414Z,27.08
2023-06-17T09:43:53.400Z,27.08
2023-06-17T09:44:53.404Z,27.06
2023-06-17T09:45:53.361Z,27.07
2023-06-17T09:46:53.477Z,27.07
2023-06-17T09:47:53.415Z,27.08
2023-06-17T09:48:53.396Z,27.08
2023-06-17T09:49:53.385Z,27.08
2023-06-17T09:50:53.333Z,27.07
2023-06-17T09:51:53.337Z,27.07
2023-06-17T09:52:53.350Z,27.07
2023-06-17T09:53:53.361Z,27.08
2023-06-17T09:54:53.332Z,27.08
2023-06-17T09:55:53.298Z,27.09
2023-06-17T09:56:53.399Z,27.09
2023-06-17T09:57:53.321Z,27.11
2023-06-17T09:58:53.286Z,27.11
2023-06-17T09:59:53.303Z,27.11
2023-06-17T10:00:53.270Z,27.12
2023-06-17T10:01:53.314Z,27.11
2023-06-17T10:02:53.327Z,27.12
2023-06-17T10:03:53.330Z,27.11
2023-06-17T10:04:53.257Z,27.10
2023-06-17T10:05:53.284Z,27.10
2023-06-17T10:06:53.262Z,27.11
2023-06-17T10:07:53.214Z,27.09
2023-06-17T10:08:53.260Z,27.11
2023-06-17T10:09:53.260Z,27.10
2023-06-17T10:10:53.250Z,27.09
2023-06-17T10:11:53.214Z,27.11
2023-06-17T10:12:53.184Z,27.12
2023-06-17T10:13:53.180Z,27.13
2023-06-17T10:14:53.197Z,27.13
2023-06-17T10:15:53.168Z,27.14
2023-06-17T10:16:53.209Z,27.14
2023-06-17T10:17:53.211Z,27.14
2023-06-17T10:18:53.185Z,27.13
2023-06-17T10:19:53.163Z,27.13
2023-06-17T10:20:53.147Z,27.12
2023-06-17T10:21:53.135Z,27.13
2023-06-17T10:22:53.142Z,27.13
2023-06-17T10:23:53.184Z,27.13
2023-06-17T10:24:53.136Z,27.13
2023-06-17T10:25:53.106Z,27.13
2023-06-17T10:26:53.107Z,27.13
2023-06-17T10:27:53.072Z,27.12
2023-06-17T10:28:53.091Z,27.12
2023-06-17T10:29:53.087Z,27.13
2023-06-17T10:30:53.099Z,27.11
2023-06-17T10:31:53.042Z,27.10
2023-06-17T10:32:53.075Z,27.09
2023-06-17T10:33:53.055Z,27.09
2023-06-17T10:34:53.076Z,27.08
2023-06-17T10:35:53.034Z,27.07
2023-06-17T10:36:53.080Z,27.05
2023-06-17T10:37:53.038Z,27.05
2023-06-17T10:38:53.038Z,27.06
2023-06-17T10:39:52.991Z,27.09
2023-06-17T10:40:53.000Z,27.08
2023-06-17T10:41:53.065Z,27.10
2023-06-17T10:42:52.966Z,27.09
2023-06-17T10:43:53.026Z,27.10
2023-06-17T10:44:52.984Z,27.11
2023-06-17T10:45:53.023Z,27.12
2023-06-17T10:46:52.926Z,27.12
2023-06-17T10:47:52.993Z,27.14
2023-06-17T10:48:52.955Z,27.15
2023-06-17T10:49:52.929Z,27.14
2023-06-17T10:50:52.925Z,27.13
2023-06-17T10:52:52.936Z,27.13
2023-06-17T10:53:52.862Z,27.13
2023-06-17T10:54:52.900Z,27.12
2023-06-17T10:55:52.892Z,27.13
2023-06-17T10:56:52.876Z,27.13
2023-06-17T10:57:52.865Z,27.10
2023-06-17T10:58:52.878Z,27.10
2023-06-17T10:59:52.887Z,27.08
2023-06-17T11:00:52.827Z,27.09
2023-06-17T11:01:52.806Z,27.09
2023-06-17T11:02:52.964Z,27.09
2023-06-17T11:03:52.874Z,27.09
2023-06-17T11:04:52.844Z,27.10
2023-06-17T11:05:52.808Z,27.10
2023-06-17T11:06:52.824Z,27.11
2023-06-17T11:07:52.779Z,27.08
2023-06-17T11:08:52.788Z,27.07
2023-06-17T11:09:52.839Z,27.04
2023-06-17T11:10:52.798Z,27.05
2023-06-17T11:11:52.740Z,27.06
2023-06-17T11:12:52.775Z,27.06
2023-06-17T11:13:52.806Z,27.08
2023-06-17T11:14:52.785Z,27.05
2023-06-17T11:15:52.732Z,27.07
2023-06-17T11:16:52.819Z,27.05
2023-06-17T11:17:52.738Z,27.06
2023-06-17T11:18:52.728Z,27.05
2023-06-17T11:19:52.737Z,27.05
2023-06-17T11:20:52.730Z,27.07
2023-06-17T11:21:52.715Z,27.08
2023-06-17T11:22:52.716Z,27.10
2023-06-17T11:23:52.754Z,27.12
2023-06-17T11:24:52.696Z,27.12
2023-06-17T11:25:53.485Z,27.13
2023-06-17T11:26:52.638Z,27.14
2023-06-17T11:27:52.686Z,27.15
2023-06-17T11:28:52.622Z,27.15
2023-06-17T11:29:52.686Z,27.16
2023-06-17T11:30:52.687Z,27.17
2023-06-17T11:31:52.630Z,27.19
2023-06-17T11:32:52.701Z,27.18
2023-06-17T11:33:52.626Z,27.17
2023-06-17T11:34:52.599Z,27.17
2023-06-17T11:35:52.635Z,27.18
2023-06-17T11:36:52.567Z,27.19
2023-06-17T11:37:52.618Z,27.19
2023-06-17T11:38:52.599Z,27.18
2023-06-17T11:39:52.591Z,27.17
2023-06-17T11:40:52.609Z,27.17
2023-06-17T11:41:52.572Z,27.18
2023-06-17T11:42:52.547Z,27.18
2023-06-17T11:43:52.559Z,27.19
2023-06-17T11:44:52.540Z,27.19
2023-06-17T11:45:52.619Z,27.19
2023-06-17T11:46:52.553Z,27.19
2023-06-17T11:47:52.553Z,27.21
2023-06-17T11:48:52.511Z,27.21
2023-06-17T11:49:52.521Z,27.20
2023-06-17T11:50:52.542Z,27.19
2023-06-17T11:51:52.505Z,27.19
2023-06-17T11:52:52.499Z,27.19
2023-06-17T11:53:52.485Z,27.19
2023-06-17T11:54:52.476Z,27.19
2023-06-17T11:55:52.470Z,27.17
2023-06-17T11:56:52.463Z,27.16
2023-06-17T11:57:52.443Z,27.17
2023-06-17T11:58:52.438Z,27.17
2023-06-17T11:59:52.485Z,27.17
2023-06-17T12:00:52.427Z,27.18
2023-06-17T12:01:52.450Z,27.19
2023-06-17T12:02:52.517Z,27.20
2023-06-17T12:03:52.442Z,27.19
2023-06-17T12:04:52.386Z,27.17
2023-06-17T12:05:52.402Z,27.17
2023-06-17T12:06:52.381Z,27.18
2023-06-17T12:07:52.437Z,27.19
2023-06-17T12:08:52.380Z,27.18
2023-06-17T12:09:52.435Z,27.19
2023-06-17T12:10:52.383Z,27.18
2023-06-17T12:11:52.363Z,27.15
2023-06-17T12:12:53.614Z,27.15
2023-06-17T12:13:52.345Z,27.17
2023-06-17T12:14:52.358Z,27.17
2023-06-17T12:15:52.373Z,27.18
2023-06-17T12:16:52.401Z,27.21
2023-06-17T12:17:52.507Z,27.23
2023-06-17T12:18:52.464Z,27.23
2023-06-17T12:19:52.496Z,27.24
2023-06-17T12:20:52.518Z,27.23
2023-06-17T12:21:52.542Z,27.23
2023-06-17T12:22:52.604Z,27.22
2023-06-17T12:23:52.644Z,27.21
2023-06-17T12:24:52.585Z,27.23
2023-06-17T12:25:52.638Z,27.23
2023-06-17T12:26:52.606Z,27.23
2023-06-17T12:27:52.680Z,27.24
2023-06-17T12:28:52.707Z,27.24
2023-06-17T12:29:52.741Z,27.25
2023-06-17T12:30:52.773Z,27.25
2023-06-17T12:31:52.801Z,27.25
2023-06-17T12:32:52.847Z,27.25
2023-06-17T12:33:52.822Z,27.26
2023-06-17T12:34:52.861Z,27.25
2023-06-17T12:35:52.914Z,27.26
2023-06-17T12:36:52.892Z,27.26
2023-06-17T12:37:52.897Z,27.27
2023-06-17T12:38:52.963Z,27.28
2023-06-17T12:39:52.966Z,27.28
2023-06-17T12:40:52.991Z,27.26
2023-06-17T12:41:53.016Z,27.25
2023-06-17T12:42:53.021Z,27.24
2023-06-17T12:43:53.047Z,27.25
2023-06-17T12:44:53.164Z,27.24
2023-06-17T12:45:53.195Z,27.26
2023-06-17T12:46:53.808Z,27.26
2023-06-17T12:47:53.257Z,27.25
2023-06-17T12:48:53.310Z,27.27
2023-06-17T12:49:53.276Z,27.26
2023-06-17T12:50:53.284Z,27.27
2023-06-17T12:51:53.300Z,27.27
2023-06-17T12:52:53.356Z,27.25
2023-06-17T12:53:53.290Z,27.24
2023-06-17T12:54:53.325Z,27.22